KTEB Airport (Teterboro) Information

FAA: TEB - ICAO: KTEB

KTEB Airport Location

State New Jersey
County Bergen
City Teterboro
KTEB Airport is 1 miles southwest of Teterboro, NJ.
Latitude 40-51-00.4000N
Longitude 074-03-39.0000W
Elevation 8ft

KTEB Airport METARs

METAR KTEB 060651Z 26010KT 10SM CLR 23/20 A2979 RMK AO2 SLP086 T02280200 $
Altimeter 29.79"
Temperature 22.8°C (73.0°F)
Wind 260° at 10KT
Clouds Skies are clear.
Visibility 10.0mi
Time observed: 2022-07-06T06:51:00Z

KTEB Airport Details

Status Operational
Activation January 1947
Ownership Public
Usage Public
Chart NEW YORK
ATC on-site Yes
Beacon schedule sunset-sunrise
Beacon color clear green

KTEB Airport Contacts

Owner PORT AUTHORITY OF NY & NJ
Owner address 4 WORLD TRADE CENTER, NEW YORK, NY 10006
Owner phone 212-435-3640
Manager JOHN KRANZ
Manager address 200 PARSONAGE RD, EDISON, NJ 08820
Manager phone 201-549-0665

KTEB Airport (Teterboro) Radio Frequencies

KTEB (Airport) Radio Frequencies

UNICOM N/A
Common traffic advisory frequency (CTAF) N/A